| time (UTC) | temp C | wind direction | speed KPH | gust KPH | rain 1hr cm | rain 24hr cm | rain mn cm | humidity % | barometer mb |
| 20260510091534 | 5 | 0 | 0.0 | 1.6 | 0.00 | 0.20 | 0.00 | 67 | 1014.3 |
| 20260510090035 | 6 | 274 | 0.0 | 4.8 | 0.00 | 0.20 | 0.00 | 66 | 1014.0 |
| 20260510084532 | 6 | 291 | 1.6 | 6.4 | 0.00 | 0.20 | 0.00 | 66 | 1013.7 |
| 20260510083035 | 6 | 0 | 0.0 | 6.4 | 0.00 | 0.20 | 0.00 | 66 | 1013.3 |
| 20260510081537 | 7 | 12 | 3.2 | 8.0 | 0.00 | 0.20 | 0.00 | 66 | 1013.0 |
| 20260510080034 | 7 | 336 | 3.2 | 8.0 | 0.00 | 0.20 | 0.00 | 64 | 1012.5 |
| 20260510074541 | 7 | 342 | 0.0 | 6.4 | 0.00 | 0.20 | 0.00 | 63 | 1012.3 |
| 20260510073040 | 7 | 34 | 4.8 | 11.3 | 0.00 | 0.20 | 0.00 | 63 | 1012.0 |
| 20260510071536 | 7 | 274 | 0.0 | 3.2 | 0.00 | 0.20 | 0.00 | 67 | 1011.6 |
| 20260510070047 | 7 | 24 | 3.2 | 8.0 | 0.00 | 0.20 | 0.00 | 68 | 1011.3 |
| 20260510064544 | 8 | 321 | 0.0 | 1.6 | 0.00 | 0.20 | 0.00 | 67 | 1011.2 |
| 20260510063041 | 8 | 0 | 1.6 | 4.8 | 0.00 | 0.20 | 0.00 | 64 | 1011.1 |
| 20260510061540 | 9 | 23 | 1.6 | 8.0 | 0.00 | 0.20 | 0.00 | 66 | 1011.0 |
| 20260510060049 | 8 | 0 | 0.0 | 9.7 | 0.00 | 0.20 | 0.00 | 68 | 1010.9 |
| 20260510054537 | 8 | 0 | 0.0 | 0.0 | 0.00 | 0.20 | 0.00 | 68 | 1010.8 |
| 20260510053036 | 9 | 0 | 0.0 | 0.0 | 0.00 | 0.20 | 0.00 | 67 | 1010.5 |
| 20260510051601 | 10 | 309 | 0.0 | 1.6 | 0.00 | 0.20 | 0.00 | 66 | 1010.0 |
| 20260510050040 | 10 | 0 | 0.0 | 1.6 | 0.00 | 0.20 | 0.00 | 66 | 1009.8 |
| 20260510044538 | 10 | 0 | 0.0 | 1.6 | 0.00 | 0.20 | 0.00 | 66 | 1009.5 |
| 20260510043049 | 10 | 0 | 0.0 | 0.0 | 0.00 | 0.20 | 0.00 | 64 | 1009.3 |
| 20260510041537 | 11 | 0 | 0.0 | 1.6 | 0.00 | 0.20 | 0.00 | 62 | 1009.0 |
| 20260510040042 | 11 | 0 | 0.0 | 1.6 | 0.00 | 0.20 | 0.00 | 59 | 1008.9 |
| 20260510034532 | 12 | 353 | 0.0 | 3.2 | 0.00 | 0.20 | 0.20 | 57 | 1008.9 |
| 20260510033041 | 12 | 309 | 0.0 | 6.4 | 0.00 | 0.20 | 0.20 | 56 | 1008.6 |
| 20260510031605 | 13 | 0 | 0.0 | 3.2 | 0.00 | 0.20 | 0.20 | 54 | 1008.4 |
| 20260510030038 | 13 | 265 | 1.6 | 8.0 | 0.00 | 0.20 | 0.20 | 53 | 1008.2 |
| 20260510024545 | 14 | 328 | 3.2 | 9.7 | 0.00 | 0.20 | 0.20 | 51 | 1008.1 |
| 20260510023043 | 14 | 311 | 4.8 | 16.1 | 0.00 | 0.20 | 0.20 | 50 | 1007.8 |
| 20260510021544 | 15 | 338 | 8.0 | 17.7 | 0.00 | 0.20 | 0.20 | 49 | 1007.4 |
| 20260510020042 | 16 | 302 | 6.4 | 16.1 | 0.00 | 0.20 | 0.20 | 48 | 1007.0 |
| 20260510014541 | 16 | 311 | 8.0 | 17.7 | 0.00 | 0.20 | 0.20 | 50 | 1006.4 |
| 20260510013038 | 16 | 288 | 4.8 | 16.1 | 0.00 | 0.20 | 0.20 | 53 | 1005.7 |
| 20260510011543 | 16 | 279 | 0.0 | 3.2 | 0.00 | 0.20 | 0.20 | 54 | 1005.2 |
| 20260510010050 | 16 | 302 | 1.6 | 8.0 | 0.00 | 0.20 | 0.20 | 55 | 1004.9 |
| 20260510004542 | 16 | 0 | 0.0 | 3.2 | 0.00 | 0.20 | 0.20 | 51 | 1004.4 |
| 20260510003038 | 17 | 231 | 1.6 | 8.0 | 0.00 | 0.20 | 0.20 | 48 | 1004.2 |
| 20260510001537 | 18 | 292 | 3.2 | 12.9 | 0.00 | 0.20 | 0.20 | 46 | 1004.0 |
| 20260510000037 | 18 | 224 | 6.4 | 16.1 | 0.00 | 0.20 | 0.20 | 45 | 1003.8 |
| 20260509234536 | 18 | 279 | 8.0 | 22.5 | 0.00 | 0.20 | 0.20 | 43 | 1003.9 |
| 20260509233041 | 19 | 285 | 12.9 | 25.7 | 0.00 | 0.20 | 0.20 | 43 | 1003.7 |
| 20260509231546 | 19 | 146 | 12.9 | 27.4 | 0.00 | 0.20 | 0.20 | 41 | 1003.6 |
| 20260509230040 | 19 | 309 | 9.7 | 30.6 | 0.00 | 0.20 | 0.20 | 41 | 1003.6 |
| 20260509224537 | 20 | 8 | 16.1 | 35.4 | 0.00 | 0.20 | 0.20 | 41 | 1003.6 |
| 20260509223037 | 20 | 273 | 9.7 | 35.4 | 0.00 | 0.20 | 0.20 | 39 | 1003.4 |
| 20260509221539 | 20 | 242 | 20.9 | 45.1 | 0.00 | 0.20 | 0.20 | 38 | 1003.2 |
| 20260509220038 | 20 | 291 | 20.9 | 40.2 | 0.00 | 0.20 | 0.20 | 38 | 1002.9 |
| 20260509214534 | 20 | 277 | 12.9 | 40.2 | 0.00 | 0.20 | 0.20 | 38 | 1002.9 |
| 20260509213057 | 20 | 240 | 9.7 | 29.0 | 0.00 | 0.20 | 0.20 | 40 | 1002.4 |
| 20260509211606 | 20 | 336 | 14.5 | 32.2 | 0.00 | 0.20 | 0.20 | 41 | 1002.3 |
| 20260509210037 | 20 | 273 | 6.4 | 27.4 | 0.00 | 0.20 | 0.20 | 45 | 1002.5 |
| 20260509204544 | 19 | 272 | 11.3 | 22.5 | 0.00 | 0.20 | 0.20 | 47 | 1002.4 |
| 20260509203042 | 18 | 273 | 9.7 | 17.7 | 0.00 | 0.20 | 0.20 | 50 | 1002.7 |
| 20260509201534 | 18 | 274 | 9.7 | 27.4 | 0.00 | 0.20 | 0.20 | 51 | 1003.1 |
| 20260509200032 | 18 | 273 | 8.0 | 24.1 | 0.00 | 0.20 | 0.20 | 52 | 1003.5 |
| 20260509194539 | 18 | 290 | 8.0 | 27.4 | 0.00 | 0.20 | 0.20 | 55 | 1003.1 |
| 20260509193040 | 18 | 252 | 6.4 | 17.7 | 0.20 | 0.20 | 0.20 | 61 | 1003.0 |
| 20260509191537 | 17 | 285 | 6.4 | 14.5 | 0.20 | 0.20 | 0.20 | 73 | 1003.2 |
| 20260509190041 | 15 | 278 | 6.4 | 17.7 | 0.20 | 0.20 | 0.20 | 82 | 1003.0 |
| 20260509184538 | 14 | 259 | 11.3 | 30.6 | 0.20 | 0.20 | 0.20 | 75 | 1002.7 |
| 20260509183037 | 18 | 328 | 14.5 | 33.8 | 0.00 | 0.00 | 0.00 | 54 | 1002.6 |
| 20260509181537 | 19 | 245 | 12.9 | 40.2 | 0.00 | 0.00 | 0.00 | 54 | 1002.1 |
| 20260509180037 | 20 | 245 | 11.3 | 37.0 | 0.00 | 0.00 | 0.00 | 53 | 1002.1 |
| 20260509174534 | 19 | 289 | 14.5 | 30.6 | 0.00 | 0.00 | 0.00 | 53 | 1002.6 |
| 20260509173032 | 19 | 206 | 11.3 | 27.4 | 0.00 | 0.00 | 0.00 | 56 | 1002.5 |
| 20260509171533 | 19 | 183 | 11.3 | 25.7 | 0.00 | 0.00 | 0.00 | 56 | 1002.6 |
| 20260509170040 | 19 | 191 | 12.9 | 29.0 | 0.00 | 0.00 | 0.00 | 55 | 1002.7 |
| 20260509164536 | 18 | 162 | 12.9 | 27.4 | 0.00 | 0.00 | 0.00 | 57 | 1002.7 |
| 20260509163048 | 18 | 141 | 9.7 | 32.2 | 0.00 | 0.00 | 0.00 | 60 | 1002.8 |
| 20260509161534 | 18 | 281 | 6.4 | 24.1 | 0.00 | 0.00 | 0.00 | 59 | 1002.9 |
| 20260509160035 | 18 | 205 | 9.7 | 24.1 | 0.00 | 0.00 | 0.00 | 62 | 1003.1 |
| 20260509154533 | 17 | 34 | 6.4 | 24.1 | 0.00 | 0.00 | 0.00 | 65 | 1003.0 |
| 20260509153036 | 17 | 254 | 9.7 | 24.1 | 0.00 | 0.00 | 0.00 | 64 | 1003.0 |
| 20260509151536 | 16 | 252 | 12.9 | 30.6 | 0.00 | 0.00 | 0.00 | 64 | 1003.4 |
| 20260509150038 | 16 | 150 | 8.0 | 19.3 | 0.00 | 0.00 | 0.00 | 68 | 1003.4 |
| 20260509144534 | 16 | 196 | 8.0 | 22.5 | 0.00 | 0.00 | 0.00 | 71 | 1003.6 |
| 20260509143036 | 15 | 88 | 6.4 | 17.7 | 0.00 | 0.00 | 0.00 | 75 | 1003.6 |
| 20260509141537 | 15 | 207 | 6.4 | 20.9 | 0.00 | 0.00 | 0.00 | 77 | 1003.8 |
| 20260509140039 | 13 | 132 | 6.4 | 16.1 | 0.00 | 0.00 | 0.00 | 80 | 1003.9 |
| 20260509134548 | 12 | 117 | 4.8 | 16.1 | 0.00 | 0.00 | 0.00 | 84 | 1004.1 |
| 20260509133053 | 12 | 172 | 6.4 | 14.5 | 0.00 | 0.00 | 0.00 | 85 | 1004.6 |
| 20260509131534 | 12 | 119 | 3.2 | 16.1 | 0.00 | 0.00 | 0.00 | 88 | 1004.7 |
| 20260509130034 | 11 | 253 | 3.2 | 14.5 | 0.00 | 0.00 | 0.00 | 91 | 1005.0 |
| 20260509124538 | 10 | 235 | 4.8 | 19.3 | 0.00 | 0.00 | 0.00 | 92 | 1004.8 |
| 20260509123037 | 10 | 195 | 3.2 | 12.9 | 0.00 | 0.00 | 0.00 | 94 | 1004.7 |
| 20260509121539 | 10 | 154 | 4.8 | 14.5 | 0.00 | 0.00 | 0.00 | 95 | 1004.8 |
| 20260509120036 | 10 | 217 | 4.8 | 14.5 | 0.00 | 0.00 | 0.00 | 95 | 1004.8 |
| 20260509114550 | 9 | 230 | 3.2 | 11.3 | 0.00 | 0.00 | 0.00 | 95 | 1005.0 |
| 20260509113037 | 9 | 217 | 1.6 | 12.9 | 0.00 | 0.00 | 0.00 | 95 | 1004.9 |
| 20260509111536 | 9 | 238 | 1.6 | 11.3 | 0.00 | 0.00 | 0.00 | 95 | 1005.0 |
| 20260509110037 | 8 | 153 | 1.6 | 9.7 | 0.00 | 0.00 | 0.00 | 95 | 1004.8 |
| 20260509104536 | 8 | 0 | 1.6 | 9.7 | 0.00 | 0.00 | 0.00 | 95 | 1004.8 |
| 20260509103035 | 8 | 149 | 1.6 | 12.9 | 0.00 | 0.00 | 0.00 | 95 | 1004.9 |
| 20260509101534 | 8 | 238 | 1.6 | 6.4 | 0.00 | 0.00 | 0.00 | 95 | 1004.9 |
| 20260509100032 | 8 | 246 | 1.6 | 6.4 | 0.00 | 0.00 | 0.00 | 94 | 1005.0 |
| 20260509094537 | 8 | 0 | 0.0 | 3.2 | 0.00 | 0.00 | 0.00 | 94 | 1005.0 |
| 20260509093034 | 8 | 0 | 0.0 | 1.6 | 0.00 | 0.00 | 0.00 | 94 | 1005.1 |